sensor_id;sensor_type;location;lat;lon;timestamp;P1;durP1;ratioP1;P2;durP2;ratioP2
52888;SDS011;41413;52.770;6.892;2023-07-13T00:01:31;18.48;;;17.67;;
52888;SDS011;41413;52.770;6.892;2023-07-13T00:03:59;16.73;;;16.02;;
52888;SDS011;41413;52.770;6.892;2023-07-13T00:06:26;18.70;;;17.70;;
52888;SDS011;41413;52.770;6.892;2023-07-13T00:08:56;17.63;;;16.92;;
52888;SDS011;41413;52.770;6.892;2023-07-13T00:11:23;20.15;;;19.40;;
52888;SDS011;41413;52.770;6.892;2023-07-13T00:13:50;19.80;;;19.00;;
52888;SDS011;41413;52.770;6.892;2023-07-13T00:16:17;18.40;;;17.52;;
52888;SDS011;41413;52.770;6.892;2023-07-13T00:18:45;18.77;;;17.77;;
52888;SDS011;41413;52.770;6.892;2023-07-13T00:21:13;20.75;;;19.77;;
52888;SDS011;41413;52.770;6.892;2023-07-13T00:23:41;17.98;;;17.13;;
52888;SDS011;41413;52.770;6.892;2023-07-13T00:26:09;18.00;;;17.20;;
52888;SDS011;41413;52.770;6.892;2023-07-13T00:28:38;19.23;;;18.35;;
52888;SDS011;41413;52.770;6.892;2023-07-13T00:31:05;18.25;;;17.48;;
52888;SDS011;41413;52.770;6.892;2023-07-13T00:33:34;20.58;;;19.70;;
52888;SDS011;41413;52.770;6.892;2023-07-13T00:36:02;17.45;;;16.75;;
52888;SDS011;41413;52.770;6.892;2023-07-13T00:38:29;18.90;;;18.10;;
52888;SDS011;41413;52.770;6.892;2023-07-13T00:40:56;16.77;;;16.05;;
52888;SDS011;41413;52.770;6.892;2023-07-13T00:43:24;18.83;;;18.10;;
52888;SDS011;41413;52.770;6.892;2023-07-13T00:48:21;18.02;;;17.25;;
52888;SDS011;41413;52.770;6.892;2023-07-13T00:50:51;18.10;;;17.40;;
52888;SDS011;41413;52.770;6.892;2023-07-13T00:53:20;16.70;;;16.00;;
52888;SDS011;41413;52.770;6.892;2023-07-13T00:55:48;19.50;;;18.60;;
52888;SDS011;41413;52.770;6.892;2023-07-13T00:58:17;18.73;;;18.02;;
52888;SDS011;41413;52.770;6.892;2023-07-13T01:00:44;17.83;;;16.95;;
52888;SDS011;41413;52.770;6.892;2023-07-13T01:03:13;16.75;;;16.05;;
52888;SDS011;41413;52.770;6.892;2023-07-13T01:05:39;16.67;;;16.02;;
52888;SDS011;41413;52.770;6.892;2023-07-13T01:08:07;18.70;;;17.90;;
52888;SDS011;41413;52.770;6.892;2023-07-13T01:10:34;18.48;;;17.77;;
52888;SDS011;41413;52.770;6.892;2023-07-13T01:13:05;17.23;;;16.52;;
52888;SDS011;41413;52.770;6.892;2023-07-13T01:18:12;16.08;;;15.38;;
52888;SDS011;41413;52.770;6.892;2023-07-13T01:20:41;15.98;;;15.27;;
52888;SDS011;41413;52.770;6.892;2023-07-13T01:23:18;17.98;;;17.27;;
52888;SDS011;41413;52.770;6.892;2023-07-13T01:25:45;18.85;;;17.98;;
52888;SDS011;41413;52.770;6.892;2023-07-13T01:28:12;18.52;;;17.75;;
52888;SDS011;41413;52.770;6.892;2023-07-13T01:30:39;18.17;;;17.38;;
52888;SDS011;41413;52.770;6.892;2023-07-13T01:33:07;18.20;;;17.30;;
52888;SDS011;41413;52.770;6.892;2023-07-13T01:35:35;17.88;;;17.08;;
52888;SDS011;41413;52.770;6.892;2023-07-13T01:38:04;19.08;;;18.27;;
52888;SDS011;41413;52.770;6.892;2023-07-13T01:40:31;17.38;;;16.67;;
52888;SDS011;41413;52.770;6.892;2023-07-13T01:42:58;18.90;;;18.02;;
52888;SDS011;41413;52.770;6.892;2023-07-13T01:45:25;18.98;;;18.27;;
52888;SDS011;41413;52.770;6.892;2023-07-13T01:47:52;19.02;;;18.23;;
52888;SDS011;41413;52.770;6.892;2023-07-13T01:50:19;18.35;;;17.55;;
52888;SDS011;41413;52.770;6.892;2023-07-13T01:52:46;18.67;;;17.88;;
52888;SDS011;41413;52.770;6.892;2023-07-13T01:55:12;18.58;;;17.85;;
52888;SDS011;41413;52.770;6.892;2023-07-13T01:57:40;16.92;;;16.23;;
52888;SDS011;41413;52.770;6.892;2023-07-13T02:00:08;21.13;;;20.23;;
52888;SDS011;41413;52.770;6.892;2023-07-13T02:02:36;20.30;;;19.40;;
52888;SDS011;41413;52.770;6.892;2023-07-13T02:05:03;19.52;;;18.42;;
52888;SDS011;41413;52.770;6.892;2023-07-13T02:07:31;18.80;;;17.95;;
52888;SDS011;41413;52.770;6.892;2023-07-13T02:09:57;17.48;;;16.77;;
52888;SDS011;41413;52.770;6.892;2023-07-13T02:12:24;20.13;;;19.13;;
52888;SDS011;41413;52.770;6.892;2023-07-13T02:14:51;17.40;;;16.70;;
52888;SDS011;41413;52.770;6.892;2023-07-13T02:17:18;20.27;;;19.17;;
52888;SDS011;41413;52.770;6.892;2023-07-13T02:19:45;19.27;;;18.38;;
52888;SDS011;41413;52.770;6.892;2023-07-13T02:22:12;17.35;;;16.55;;
52888;SDS011;41413;52.770;6.892;2023-07-13T02:24:38;19.27;;;18.48;;
52888;SDS011;41413;52.770;6.892;2023-07-13T02:27:05;22.08;;;21.08;;
52888;SDS011;41413;52.770;6.892;2023-07-13T02:29:32;18.50;;;17.70;;
52888;SDS011;41413;52.770;6.892;2023-07-13T02:31:59;18.60;;;17.70;;
52888;SDS011;41413;52.770;6.892;2023-07-13T02:34:26;19.90;;;19.08;;
52888;SDS011;41413;52.770;6.892;2023-07-13T02:36:53;17.77;;;17.08;;
52888;SDS011;41413;52.770;6.892;2023-07-13T02:39:20;18.38;;;17.58;;
52888;SDS011;41413;52.770;6.892;2023-07-13T02:41:47;16.33;;;15.68;;
52888;SDS011;41413;52.770;6.892;2023-07-13T02:44:14;17.40;;;16.70;;
52888;SDS011;41413;52.770;6.892;2023-07-13T02:46:41;17.70;;;16.80;;
52888;SDS011;41413;52.770;6.892;2023-07-13T02:49:08;17.33;;;16.63;;
52888;SDS011;41413;52.770;6.892;2023-07-13T02:51:35;16.85;;;16.15;;
52888;SDS011;41413;52.770;6.892;2023-07-13T02:54:02;18.58;;;17.67;;
52888;SDS011;41413;52.770;6.892;2023-07-13T02:56:31;17.27;;;16.48;;
52888;SDS011;41413;52.770;6.892;2023-07-13T02:58:59;16.88;;;16.17;;
52888;SDS011;41413;52.770;6.892;2023-07-13T03:01:27;20.30;;;19.50;;
52888;SDS011;41413;52.770;6.892;2023-07-13T03:03:54;18.23;;;17.33;;
52888;SDS011;41413;52.770;6.892;2023-07-13T03:06:21;17.58;;;16.77;;
52888;SDS011;41413;52.770;6.892;2023-07-13T03:08:49;17.25;;;16.55;;
52888;SDS011;41413;52.770;6.892;2023-07-13T03:11:18;17.48;;;16.77;;
52888;SDS011;41413;52.770;6.892;2023-07-13T03:13:46;17.90;;;17.20;;
52888;SDS011;41413;52.770;6.892;2023-07-13T03:16:13;17.90;;;16.75;;
52888;SDS011;41413;52.770;6.892;2023-07-13T03:18:45;18.20;;;17.30;;
52888;SDS011;41413;52.770;6.892;2023-07-13T03:21:12;17.15;;;16.35;;
52888;SDS011;41413;52.770;6.892;2023-07-13T03:23:39;17.73;;;16.92;;
52888;SDS011;41413;52.770;6.892;2023-07-13T03:26:07;16.52;;;15.68;;
52888;SDS011;41413;52.770;6.892;2023-07-13T03:28:37;16.23;;;15.52;;
52888;SDS011;41413;52.770;6.892;2023-07-13T03:31:04;17.55;;;16.73;;
52888;SDS011;41413;52.770;6.892;2023-07-13T03:33:37;18.00;;;17.13;;
52888;SDS011;41413;52.770;6.892;2023-07-13T03:36:05;17.88;;;17.00;;
52888;SDS011;41413;52.770;6.892;2023-07-13T03:38:35;17.70;;;16.83;;
52888;SDS011;41413;52.770;6.892;2023-07-13T03:41:01;17.33;;;16.65;;
52888;SDS011;41413;52.770;6.892;2023-07-13T03:43:28;17.15;;;16.48;;
52888;SDS011;41413;52.770;6.892;2023-07-13T03:45:55;17.42;;;16.63;;
52888;SDS011;41413;52.770;6.892;2023-07-13T03:48:22;15.98;;;15.27;;
52888;SDS011;41413;52.770;6.892;2023-07-13T03:50:49;16.33;;;15.63;;
52888;SDS011;41413;52.770;6.892;2023-07-13T03:53:16;18.55;;;17.50;;
52888;SDS011;41413;52.770;6.892;2023-07-13T03:55:43;18.38;;;17.58;;
52888;SDS011;41413;52.770;6.892;2023-07-13T03:58:23;18.00;;;17.13;;
52888;SDS011;41413;52.770;6.892;2023-07-13T04:00:53;15.10;;;14.50;;
52888;SDS011;41413;52.770;6.892;2023-07-13T04:03:20;18.25;;;17.45;;
52888;SDS011;41413;52.770;6.892;2023-07-13T04:05:47;17.38;;;16.58;;
52888;SDS011;41413;52.770;6.892;2023-07-13T04:08:14;17.80;;;17.00;;
52888;SDS011;41413;52.770;6.892;2023-07-13T04:10:42;15.43;;;14.73;;
52888;SDS011;41413;52.770;6.892;2023-07-13T04:13:09;18.85;;;17.88;;
52888;SDS011;41413;52.770;6.892;2023-07-13T04:15:36;19.58;;;18.73;;
52888;SDS011;41413;52.770;6.892;2023-07-13T04:18:03;15.65;;;14.88;;
52888;SDS011;41413;52.770;6.892;2023-07-13T04:20:30;17.60;;;16.80;;
52888;SDS011;41413;52.770;6.892;2023-07-13T04:22:56;17.83;;;17.00;;
52888;SDS011;41413;52.770;6.892;2023-07-13T04:25:24;16.70;;;15.80;;
52888;SDS011;41413;52.770;6.892;2023-07-13T04:27:50;15.93;;;15.23;;
52888;SDS011;41413;52.770;6.892;2023-07-13T04:30:18;17.27;;;16.38;;
52888;SDS011;41413;52.770;6.892;2023-07-13T04:32:45;18.55;;;17.75;;
52888;SDS011;41413;52.770;6.892;2023-07-13T04:35:13;16.70;;;16.00;;
52888;SDS011;41413;52.770;6.892;2023-07-13T04:37:40;15.90;;;15.23;;
52888;SDS011;41413;52.770;6.892;2023-07-13T04:40:07;15.85;;;15.13;;
52888;SDS011;41413;52.770;6.892;2023-07-13T04:42:38;16.50;;;15.77;;
52888;SDS011;41413;52.770;6.892;2023-07-13T04:45:08;17.17;;;16.30;;
52888;SDS011;41413;52.770;6.892;2023-07-13T04:47:35;16.35;;;15.65;;
52888;SDS011;41413;52.770;6.892;2023-07-13T04:50:01;17.25;;;16.38;;
52888;SDS011;41413;52.770;6.892;2023-07-13T04:52:28;16.30;;;15.60;;
52888;SDS011;41413;52.770;6.892;2023-07-13T04:54:55;15.90;;;15.27;;
52888;SDS011;41413;52.770;6.892;2023-07-13T04:57:22;15.18;;;14.57;;
52888;SDS011;41413;52.770;6.892;2023-07-13T04:59:49;16.52;;;15.85;;
52888;SDS011;41413;52.770;6.892;2023-07-13T05:02:16;16.25;;;15.57;;
52888;SDS011;41413;52.770;6.892;2023-07-13T05:04:48;18.80;;;18.00;;
52888;SDS011;41413;52.770;6.892;2023-07-13T05:07:15;17.13;;;16.33;;
52888;SDS011;41413;52.770;6.892;2023-07-13T05:09:42;16.35;;;15.65;;
52888;SDS011;41413;52.770;6.892;2023-07-13T05:12:09;14.80;;;14.00;;
52888;SDS011;41413;52.770;6.892;2023-07-13T05:14:36;16.52;;;15.65;;
52888;SDS011;41413;52.770;6.892;2023-07-13T05:17:03;16.38;;;15.68;;
52888;SDS011;41413;52.770;6.892;2023-07-13T05:19:30;15.65;;;14.85;;
52888;SDS011;41413;52.770;6.892;2023-07-13T05:21:57;17.83;;;17.02;;
52888;SDS011;41413;52.770;6.892;2023-07-13T05:24:23;15.65;;;15.00;;
52888;SDS011;41413;52.770;6.892;2023-07-13T05:26:51;17.63;;;16.90;;
52888;SDS011;41413;52.770;6.892;2023-07-13T05:29:20;18.25;;;17.52;;
52888;SDS011;41413;52.770;6.892;2023-07-13T05:31:48;16.73;;;15.93;;
52888;SDS011;41413;52.770;6.892;2023-07-13T05:34:15;18.67;;;17.92;;
52888;SDS011;41413;52.770;6.892;2023-07-13T05:36:42;17.02;;;16.30;;
52888;SDS011;41413;52.770;6.892;2023-07-13T05:39:09;15.40;;;14.70;;
52888;SDS011;41413;52.770;6.892;2023-07-13T05:41:37;15.38;;;14.57;;
52888;SDS011;41413;52.770;6.892;2023-07-13T05:44:04;17.20;;;16.42;;
52888;SDS011;41413;52.770;6.892;2023-07-13T05:46:31;18.15;;;17.35;;
52888;SDS011;41413;52.770;6.892;2023-07-13T05:48:58;17.52;;;16.77;;
52888;SDS011;41413;52.770;6.892;2023-07-13T05:51:25;16.38;;;15.68;;
52888;SDS011;41413;52.770;6.892;2023-07-13T05:53:51;16.40;;;15.70;;
52888;SDS011;41413;52.770;6.892;2023-07-13T05:56:18;15.25;;;14.55;;
52888;SDS011;41413;52.770;6.892;2023-07-13T05:58:45;17.20;;;16.50;;
52888;SDS011;41413;52.770;6.892;2023-07-13T06:01:12;15.45;;;14.85;;
52888;SDS011;41413;52.770;6.892;2023-07-13T06:03:41;17.42;;;16.73;;
52888;SDS011;41413;52.770;6.892;2023-07-13T06:06:08;16.67;;;15.68;;
52888;SDS011;41413;52.770;6.892;2023-07-13T06:08:36;13.25;;;12.65;;
52888;SDS011;41413;52.770;6.892;2023-07-13T06:11:05;14.80;;;14.18;;
52888;SDS011;41413;52.770;6.892;2023-07-13T06:13:34;15.10;;;14.20;;
52888;SDS011;41413;52.770;6.892;2023-07-13T06:16:01;14.68;;;13.88;;
52888;SDS011;41413;52.770;6.892;2023-07-13T06:18:34;14.55;;;13.88;;
52888;SDS011;41413;52.770;6.892;2023-07-13T06:21:05;17.33;;;16.45;;
52888;SDS011;41413;52.770;6.892;2023-07-13T06:23:34;16.45;;;15.75;;
52888;SDS011;41413;52.770;6.892;2023-07-13T06:26:01;14.85;;;14.15;;
52888;SDS011;41413;52.770;6.892;2023-07-13T06:28:28;16.77;;;16.08;;
52888;SDS011;41413;52.770;6.892;2023-07-13T06:30:55;15.55;;;14.85;;
52888;SDS011;41413;52.770;6.892;2023-07-13T06:33:22;16.00;;;15.27;;
52888;SDS011;41413;52.770;6.892;2023-07-13T06:35:49;15.25;;;14.63;;
52888;SDS011;41413;52.770;6.892;2023-07-13T06:38:16;16.50;;;15.70;;
52888;SDS011;41413;52.770;6.892;2023-07-13T06:40:43;15.80;;;15.10;;
52888;SDS011;41413;52.770;6.892;2023-07-13T06:43:10;16.75;;;15.95;;
52888;SDS011;41413;52.770;6.892;2023-07-13T06:45:40;16.58;;;15.80;;
52888;SDS011;41413;52.770;6.892;2023-07-13T06:48:11;17.80;;;17.00;;
52888;SDS011;41413;52.770;6.892;2023-07-13T06:50:38;16.60;;;15.80;;
52888;SDS011;41413;52.770;6.892;2023-07-13T06:53:05;18.55;;;17.67;;
52888;SDS011;41413;52.770;6.892;2023-07-13T06:55:32;15.05;;;14.45;;
52888;SDS011;41413;52.770;6.892;2023-07-13T06:57:59;14.77;;;14.13;;
52888;SDS011;41413;52.770;6.892;2023-07-13T07:00:26;16.00;;;15.30;;
52888;SDS011;41413;52.770;6.892;2023-07-13T07:02:53;14.43;;;13.82;;
52888;SDS011;41413;52.770;6.892;2023-07-13T07:05:20;17.45;;;16.55;;
52888;SDS011;41413;52.770;6.892;2023-07-13T07:07:49;14.98;;;14.27;;
52888;SDS011;41413;52.770;6.892;2023-07-13T07:10:17;15.85;;;15.05;;
52888;SDS011;41413;52.770;6.892;2023-07-13T07:12:44;17.48;;;16.58;;
52888;SDS011;41413;52.770;6.892;2023-07-13T07:15:12;15.88;;;15.10;;
52888;SDS011;41413;52.770;6.892;2023-07-13T07:17:39;16.85;;;16.15;;
52888;SDS011;41413;52.770;6.892;2023-07-13T07:20:06;14.68;;;14.05;;
52888;SDS011;41413;52.770;6.892;2023-07-13T07:22:33;15.38;;;14.73;;
52888;SDS011;41413;52.770;6.892;2023-07-13T07:25:00;17.65;;;16.85;;
52888;SDS011;41413;52.770;6.892;2023-07-13T07:27:27;17.05;;;16.25;;
52888;SDS011;41413;52.770;6.892;2023-07-13T07:29:57;16.02;;;15.32;;
52888;SDS011;41413;52.770;6.892;2023-07-13T07:32:28;17.75;;;16.85;;
52888;SDS011;41413;52.770;6.892;2023-07-13T07:35:16;17.35;;;16.55;;
52888;SDS011;41413;52.770;6.892;2023-07-13T07:37:43;17.77;;;17.08;;
52888;SDS011;41413;52.770;6.892;2023-07-13T07:40:13;21.25;;;20.00;;
52888;SDS011;41413;52.770;6.892;2023-07-13T07:42:43;18.13;;;17.40;;
52888;SDS011;41413;52.770;6.892;2023-07-13T07:45:10;18.00;;;17.10;;
52888;SDS011;41413;52.770;6.892;2023-07-13T07:47:38;16.55;;;15.80;;
52888;SDS011;41413;52.770;6.892;2023-07-13T07:50:05;17.48;;;16.58;;
52888;SDS011;41413;52.770;6.892;2023-07-13T07:52:32;15.98;;;15.27;;
52888;SDS011;41413;52.770;6.892;2023-07-13T07:54:59;17.20;;;16.17;;
52888;SDS011;41413;52.770;6.892;2023-07-13T07:57:29;18.63;;;17.83;;
52888;SDS011;41413;52.770;6.892;2023-07-13T07:59:58;15.40;;;14.68;;
52888;SDS011;41413;52.770;6.892;2023-07-13T08:02:28;19.35;;;18.50;;
52888;SDS011;41413;52.770;6.892;2023-07-13T08:04:58;18.33;;;17.58;;
52888;SDS011;41413;52.770;6.892;2023-07-13T08:07:29;18.98;;;18.13;;
52888;SDS011;41413;52.770;6.892;2023-07-13T08:09:57;16.75;;;15.90;;
52888;SDS011;41413;52.770;6.892;2023-07-13T08:12:24;18.88;;;17.80;;
52888;SDS011;41413;52.770;6.892;2023-07-13T08:14:53;18.13;;;17.33;;
52888;SDS011;41413;52.770;6.892;2023-07-13T08:17:24;18.55;;;17.75;;
52888;SDS011;41413;52.770;6.892;2023-07-13T08:19:51;16.88;;;16.08;;
52888;SDS011;41413;52.770;6.892;2023-07-13T08:22:18;17.38;;;16.60;;
52888;SDS011;41413;52.770;6.892;2023-07-13T08:24:45;17.70;;;16.60;;
52888;SDS011;41413;52.770;6.892;2023-07-13T08:27:13;18.88;;;17.98;;
52888;SDS011;41413;52.770;6.892;2023-07-13T08:29:40;16.60;;;15.70;;
52888;SDS011;41413;52.770;6.892;2023-07-13T08:32:07;18.67;;;17.88;;
52888;SDS011;41413;52.770;6.892;2023-07-13T08:34:37;19.40;;;18.40;;
52888;SDS011;41413;52.770;6.892;2023-07-13T08:37:04;16.85;;;16.05;;
52888;SDS011;41413;52.770;6.892;2023-07-13T08:39:31;18.50;;;17.60;;
52888;SDS011;41413;52.770;6.892;2023-07-13T08:42:02;18.23;;;17.33;;
52888;SDS011;41413;52.770;6.892;2023-07-13T08:47:06;17.50;;;16.70;;
52888;SDS011;41413;52.770;6.892;2023-07-13T08:49:35;16.50;;;15.52;;
52888;SDS011;41413;52.770;6.892;2023-07-13T08:52:08;17.60;;;16.40;;
52888;SDS011;41413;52.770;6.892;2023-07-13T08:54:47;18.05;;;17.17;;
52888;SDS011;41413;52.770;6.892;2023-07-13T08:57:21;17.27;;;16.48;;
52888;SDS011;41413;52.770;6.892;2023-07-13T08:59:56;14.55;;;13.85;;
52888;SDS011;41413;52.770;6.892;2023-07-13T09:02:28;14.13;;;13.43;;
52888;SDS011;41413;52.770;6.892;2023-07-13T09:05:17;15.40;;;14.70;;
52888;SDS011;41413;52.770;6.892;2023-07-13T09:08:55;16.17;;;15.48;;
52888;SDS011;41413;52.770;6.892;2023-07-13T09:13:43;14.57;;;13.88;;
52888;SDS011;41413;52.770;6.892;2023-07-13T09:16:13;20.52;;;19.50;;
52888;SDS011;41413;52.770;6.892;2023-07-13T09:18:42;16.25;;;15.55;;
52888;SDS011;41413;52.770;6.892;2023-07-13T09:21:18;16.10;;;15.20;;
52888;SDS011;41413;52.770;6.892;2023-07-13T09:23:53;18.65;;;17.67;;
52888;SDS011;41413;52.770;6.892;2023-07-13T09:26:23;20.98;;;19.90;;
52888;SDS011;41413;52.770;6.892;2023-07-13T09:28:55;18.83;;;18.10;;
52888;SDS011;41413;52.770;6.892;2023-07-13T09:31:28;18.85;;;18.08;;
52888;SDS011;41413;52.770;6.892;2023-07-13T09:34:04;18.48;;;17.77;;
52888;SDS011;41413;52.770;6.892;2023-07-13T09:36:36;17.55;;;16.85;;
52888;SDS011;41413;52.770;6.892;2023-07-13T09:39:04;20.92;;;20.02;;
52888;SDS011;41413;52.770;6.892;2023-07-13T09:41:40;21.65;;;20.75;;
52888;SDS011;41413;52.770;6.892;2023-07-13T09:44:15;22.30;;;21.40;;
52888;SDS011;41413;52.770;6.892;2023-07-13T09:46:44;18.27;;;17.58;;
52888;SDS011;41413;52.770;6.892;2023-07-13T09:49:25;17.60;;;17.00;;
52888;SDS011;41413;52.770;6.892;2023-07-13T09:52:03;18.20;;;17.60;;
52888;SDS011;41413;52.770;6.892;2023-07-13T09:54:37;15.50;;;15.00;;
52888;SDS011;41413;52.770;6.892;2023-07-13T09:57:16;18.30;;;17.63;;
52888;SDS011;41413;52.770;6.892;2023-07-13T09:59:48;18.42;;;17.77;;
52888;SDS011;41413;52.770;6.892;2023-07-13T10:02:30;17.67;;;17.08;;
52888;SDS011;41413;52.770;6.892;2023-07-13T10:05:03;16.50;;;15.95;;
52888;SDS011;41413;52.770;6.892;2023-07-13T10:07:34;16.35;;;15.85;;
52888;SDS011;41413;52.770;6.892;2023-07-13T10:10:12;18.30;;;17.70;;
52888;SDS011;41413;52.770;6.892;2023-07-13T10:12:44;17.92;;;17.33;;
52888;SDS011;41413;52.770;6.892;2023-07-13T10:15:15;16.85;;;16.25;;
52888;SDS011;41413;52.770;6.892;2023-07-13T10:17:50;17.10;;;16.50;;
52888;SDS011;41413;52.770;6.892;2023-07-13T10:20:22;16.80;;;16.25;;
52888;SDS011;41413;52.770;6.892;2023-07-13T10:22:54;17.23;;;16.63;;
52888;SDS011;41413;52.770;6.892;2023-07-13T10:25:34;16.70;;;16.15;;
52888;SDS011;41413;52.770;6.892;2023-07-13T10:28:06;19.58;;;18.90;;
52888;SDS011;41413;52.770;6.892;2023-07-13T10:30:47;20.73;;;20.02;;
52888;SDS011;41413;52.770;6.892;2023-07-13T10:33:16;23.80;;;22.92;;
52888;SDS011;41413;52.770;6.892;2023-07-13T10:35:43;23.00;;;22.23;;
52888;SDS011;41413;52.770;6.892;2023-07-13T10:38:13;22.83;;;22.02;;
52888;SDS011;41413;52.770;6.892;2023-07-13T10:40:51;22.95;;;22.15;;
52888;SDS011;41413;52.770;6.892;2023-07-13T10:43:37;21.65;;;20.85;;
52888;SDS011;41413;52.770;6.892;2023-07-13T10:46:11;24.58;;;23.70;;
52888;SDS011;41413;52.770;6.892;2023-07-13T10:48:40;26.50;;;25.55;;
52888;SDS011;41413;52.770;6.892;2023-07-13T10:51:10;25.20;;;24.30;;
52888;SDS011;41413;52.770;6.892;2023-07-13T10:53:40;24.95;;;23.95;;
52888;SDS011;41413;52.770;6.892;2023-07-13T10:56:28;27.08;;;26.02;;
52888;SDS011;41413;52.770;6.892;2023-07-13T10:59:04;28.35;;;27.30;;
52888;SDS011;41413;52.770;6.892;2023-07-13T11:04:29;30.75;;;29.63;;
52888;SDS011;41413;52.770;6.892;2023-07-13T11:10:09;26.33;;;25.33;;
52888;SDS011;41413;52.770;6.892;2023-07-13T11:16:12;24.40;;;23.40;;
52888;SDS011;41413;52.770;6.892;2023-07-13T11:21:27;23.73;;;22.90;;
52888;SDS011;41413;52.770;6.892;2023-07-13T11:24:04;25.17;;;24.20;;
52888;SDS011;41413;52.770;6.892;2023-07-13T11:26:43;26.37;;;25.27;;
52888;SDS011;41413;52.770;6.892;2023-07-13T11:29:24;28.20;;;27.15;;
52888;SDS011;41413;52.770;6.892;2023-07-13T11:31:59;24.77;;;23.85;;
52888;SDS011;41413;52.770;6.892;2023-07-13T11:37:00;20.45;;;19.75;;
52888;SDS011;41413;52.770;6.892;2023-07-13T11:42:00;21.92;;;21.17;;
52888;SDS011;41413;52.770;6.892;2023-07-13T11:44:31;21.05;;;20.33;;
52888;SDS011;41413;52.770;6.892;2023-07-13T11:47:07;21.30;;;20.52;;
52888;SDS011;41413;52.770;6.892;2023-07-13T11:49:48;22.13;;;21.33;;
52888;SDS011;41413;52.770;6.892;2023-07-13T11:52:23;21.67;;;20.92;;
52888;SDS011;41413;52.770;6.892;2023-07-13T11:54:57;20.63;;;19.92;;
52888;SDS011;41413;52.770;6.892;2023-07-13T11:57:28;19.13;;;18.45;;
52888;SDS011;41413;52.770;6.892;2023-07-13T12:00:00;20.10;;;19.40;;
52888;SDS011;41413;52.770;6.892;2023-07-13T12:02:33;20.48;;;19.67;;
52888;SDS011;41413;52.770;6.892;2023-07-13T12:05:03;18.85;;;18.15;;
52888;SDS011;41413;52.770;6.892;2023-07-13T12:07:32;20.13;;;19.42;;
52888;SDS011;41413;52.770;6.892;2023-07-13T12:10:00;22.02;;;21.23;;
52888;SDS011;41413;52.770;6.892;2023-07-13T12:12:53;18.42;;;17.70;;
52888;SDS011;41413;52.770;6.892;2023-07-13T12:15:21;19.17;;;18.48;;
52888;SDS011;41413;52.770;6.892;2023-07-13T12:17:49;17.48;;;16.77;;
52888;SDS011;41413;52.770;6.892;2023-07-13T12:20:21;19.98;;;19.25;;
52888;SDS011;41413;52.770;6.892;2023-07-13T12:22:51;19.77;;;19.10;;
52888;SDS011;41413;52.770;6.892;2023-07-13T12:25:20;17.23;;;16.58;;
52888;SDS011;41413;52.770;6.892;2023-07-13T12:27:49;16.90;;;16.25;;
52888;SDS011;41413;52.770;6.892;2023-07-13T12:30:22;17.00;;;16.30;;
52888;SDS011;41413;52.770;6.892;2023-07-13T12:33:00;16.52;;;15.93;;
52888;SDS011;41413;52.770;6.892;2023-07-13T12:35:47;18.30;;;17.65;;
52888;SDS011;41413;52.770;6.892;2023-07-13T12:38:16;19.10;;;18.40;;
52888;SDS011;41413;52.770;6.892;2023-07-13T12:40:43;15.77;;;15.27;;
52888;SDS011;41413;52.770;6.892;2023-07-13T12:43:11;15.32;;;14.73;;
52888;SDS011;41413;52.770;6.892;2023-07-13T12:45:39;17.52;;;16.85;;
52888;SDS011;41413;52.770;6.892;2023-07-13T12:48:20;18.08;;;17.40;;
52888;SDS011;41413;52.770;6.892;2023-07-13T12:51:14;17.45;;;16.75;;
52888;SDS011;41413;52.770;6.892;2023-07-13T12:53:42;18.77;;;18.02;;
52888;SDS011;41413;52.770;6.892;2023-07-13T12:56:19;23.70;;;22.73;;
52888;SDS011;41413;52.770;6.892;2023-07-13T12:58:57;18.83;;;18.00;;
52888;SDS011;41413;52.770;6.892;2023-07-13T13:01:27;20.85;;;19.83;;
52888;SDS011;41413;52.770;6.892;2023-07-13T13:03:56;23.17;;;22.08;;
52888;SDS011;41413;52.770;6.892;2023-07-13T13:06:24;21.42;;;20.52;;
52888;SDS011;41413;52.770;6.892;2023-07-13T13:08:54;25.67;;;24.67;;
52888;SDS011;41413;52.770;6.892;2023-07-13T13:11:24;29.23;;;28.15;;
52888;SDS011;41413;52.770;6.892;2023-07-13T13:13:53;26.80;;;25.70;;
52888;SDS011;41413;52.770;6.892;2023-07-13T13:19:05;28.05;;;27.05;;
52888;SDS011;41413;52.770;6.892;2023-07-13T13:21:42;27.05;;;25.85;;
52888;SDS011;41413;52.770;6.892;2023-07-13T13:24:13;30.48;;;29.38;;
52888;SDS011;41413;52.770;6.892;2023-07-13T13:26:41;23.48;;;22.67;;
52888;SDS011;41413;52.770;6.892;2023-07-13T13:29:16;26.05;;;25.05;;
52888;SDS011;41413;52.770;6.892;2023-07-13T13:31:45;28.35;;;27.27;;
52888;SDS011;41413;52.770;6.892;2023-07-13T13:34:14;25.23;;;24.33;;
52888;SDS011;41413;52.770;6.892;2023-07-13T13:36:42;22.38;;;21.58;;
52888;SDS011;41413;52.770;6.892;2023-07-13T13:41:56;27.00;;;25.80;;
52888;SDS011;41413;52.770;6.892;2023-07-13T13:44:22;23.63;;;22.77;;
52888;SDS011;41413;52.770;6.892;2023-07-13T13:46:51;21.38;;;20.58;;
52888;SDS011;41413;52.770;6.892;2023-07-13T13:49:24;22.38;;;21.58;;
52888;SDS011;41413;52.770;6.892;2023-07-13T13:51:52;23.88;;;23.00;;
52888;SDS011;41413;52.770;6.892;2023-07-13T13:54:21;25.95;;;25.05;;
52888;SDS011;41413;52.770;6.892;2023-07-13T13:56:49;22.27;;;21.48;;
52888;SDS011;41413;52.770;6.892;2023-07-13T13:59:18;20.50;;;19.63;;
52888;SDS011;41413;52.770;6.892;2023-07-13T14:01:46;23.50;;;22.60;;
52888;SDS011;41413;52.770;6.892;2023-07-13T14:04:16;20.95;;;20.15;;
52888;SDS011;41413;52.770;6.892;2023-07-13T14:06:45;23.42;;;22.52;;
52888;SDS011;41413;52.770;6.892;2023-07-13T14:09:13;19.75;;;18.95;;
52888;SDS011;41413;52.770;6.892;2023-07-13T14:11:41;16.33;;;15.68;;
52888;SDS011;41413;52.770;6.892;2023-07-13T14:14:14;19.65;;;18.95;;
52888;SDS011;41413;52.770;6.892;2023-07-13T14:19:13;16.33;;;15.77;;
52888;SDS011;41413;52.770;6.892;2023-07-13T14:21:41;15.32;;;14.73;;
52888;SDS011;41413;52.770;6.892;2023-07-13T14:24:08;13.98;;;13.43;;
52888;SDS011;41413;52.770;6.892;2023-07-13T14:26:38;19.65;;;18.75;;
52888;SDS011;41413;52.770;6.892;2023-07-13T14:29:13;18.05;;;17.35;;
52888;SDS011;41413;52.770;6.892;2023-07-13T14:31:47;14.63;;;14.05;;
52888;SDS011;41413;52.770;6.892;2023-07-13T14:34:14;13.45;;;12.90;;
52888;SDS011;41413;52.770;6.892;2023-07-13T14:36:44;15.25;;;14.65;;
52888;SDS011;41413;52.770;6.892;2023-07-13T14:39:19;14.98;;;14.43;;
52888;SDS011;41413;52.770;6.892;2023-07-13T14:41:51;14.10;;;13.55;;
52888;SDS011;41413;52.770;6.892;2023-07-13T14:44:21;15.80;;;15.23;;
52888;SDS011;41413;52.770;6.892;2023-07-13T14:46:52;16.63;;;15.93;;
52888;SDS011;41413;52.770;6.892;2023-07-13T14:49:29;13.98;;;13.43;;
52888;SDS011;41413;52.770;6.892;2023-07-13T14:52:18;13.45;;;12.90;;
52888;SDS011;41413;52.770;6.892;2023-07-13T14:54:48;16.08;;;15.27;;
52888;SDS011;41413;52.770;6.892;2023-07-13T14:57:16;15.18;;;14.43;;
52888;SDS011;41413;52.770;6.892;2023-07-13T14:59:45;13.30;;;12.80;;
52888;SDS011;41413;52.770;6.892;2023-07-13T15:04:53;14.77;;;14.18;;
52888;SDS011;41413;52.770;6.892;2023-07-13T15:07:20;13.18;;;12.68;;
52888;SDS011;41413;52.770;6.892;2023-07-13T15:09:49;17.58;;;16.88;;
52888;SDS011;41413;52.770;6.892;2023-07-13T15:12:19;13.55;;;13.05;;
52888;SDS011;41413;52.770;6.892;2023-07-13T15:14:46;13.70;;;13.15;;